createdAt,value
2022-07-25T00:00:11.728Z,52.91
2022-07-25T00:02:38.799Z,52.75
2022-07-25T00:05:07.037Z,53.19
2022-07-25T00:07:33.989Z,53.30
2022-07-25T00:10:01.751Z,53.01
2022-07-25T00:12:28.901Z,53.16
2022-07-25T00:14:56.614Z,53.26
2022-07-25T00:17:27.293Z,53.44
2022-07-25T00:19:56.104Z,53.63
2022-07-25T00:22:24.503Z,53.56
2022-07-25T00:24:52.944Z,53.48
2022-07-25T00:27:20.480Z,53.68
2022-07-25T00:29:48.261Z,53.56
2022-07-25T00:32:15.752Z,53.07
2022-07-25T00:34:43.922Z,53.18
2022-07-25T00:37:11.310Z,53.61
2022-07-25T00:39:39.912Z,53.14
2022-07-25T00:42:07.618Z,53.16
2022-07-25T00:44:35.576Z,53.63
2022-07-25T00:47:03.202Z,52.91
2022-07-25T00:49:30.652Z,53.41
2022-07-25T00:51:59.062Z,53.19
2022-07-25T00:54:26.734Z,52.54
2022-07-25T00:56:55.361Z,52.27
2022-07-25T00:59:23.603Z,52.09
2022-07-25T01:01:52.190Z,51.98
2022-07-25T01:04:20.306Z,52.20
2022-07-25T01:06:48.090Z,52.21
2022-07-25T01:09:19.336Z,52.33
2022-07-25T01:11:46.814Z,52.18
2022-07-25T01:14:14.413Z,52.44
2022-07-25T01:16:42.002Z,52.48
2022-07-25T01:19:10.201Z,52.64
2022-07-25T01:21:39.910Z,52.46
2022-07-25T01:24:09.253Z,52.46
2022-07-25T01:26:39.003Z,52.55
2022-07-25T01:29:07.231Z,52.74
2022-07-25T01:31:38.285Z,53.09
2022-07-25T01:34:06.962Z,53.00
2022-07-25T01:36:35.222Z,53.87
2022-07-25T01:39:07.894Z,53.39
2022-07-25T01:41:36.269Z,53.49
2022-07-25T01:44:04.585Z,53.65
2022-07-25T01:46:32.264Z,53.84
2022-07-25T01:49:00.816Z,54.01
2022-07-25T01:51:29.489Z,54.00
2022-07-25T01:53:57.325Z,54.49
2022-07-25T01:56:25.913Z,54.62
2022-07-25T01:58:53.485Z,54.48
2022-07-25T02:01:21.833Z,54.51
2022-07-25T02:03:49.654Z,54.62
2022-07-25T02:06:21.090Z,54.90
2022-07-25T02:08:49.113Z,54.73
2022-07-25T02:11:17.712Z,54.18
2022-07-25T02:13:47.633Z,54.73
2022-07-25T02:16:18.754Z,54.67
2022-07-25T02:18:46.221Z,54.44
2022-07-25T02:21:15.188Z,54.88
2022-07-25T02:23:45.181Z,55.33
2022-07-25T02:26:13.394Z,55.22
2022-07-25T02:28:44.951Z,55.41
2022-07-25T02:31:12.627Z,55.44
2022-07-25T02:33:40.016Z,55.47
2022-07-25T02:36:08.797Z,55.10
2022-07-25T02:38:36.419Z,55.53
2022-07-25T02:41:04.598Z,55.55
2022-07-25T02:43:35.382Z,55.28
2022-07-25T02:46:03.207Z,55.59
2022-07-25T02:48:30.852Z,55.81
2022-07-25T02:50:58.841Z,55.14
2022-07-25T02:53:47.207Z,55.45
2022-07-25T02:56:15.802Z,55.57
2022-07-25T02:58:44.885Z,55.27
2022-07-25T03:01:13.942Z,55.29
2022-07-25T03:03:41.843Z,55.60
2022-07-25T03:06:10.114Z,55.96
2022-07-25T03:08:38.334Z,55.84
2022-07-25T03:11:07.552Z,55.75
2022-07-25T03:13:38.310Z,56.67
2022-07-25T03:16:07.012Z,55.29
2022-07-25T03:18:35.951Z,55.95
2022-07-25T03:21:06.662Z,55.92
2022-07-25T03:23:35.604Z,56.59
2022-07-25T03:26:10.048Z,55.37
2022-07-25T03:28:38.829Z,55.81
2022-07-25T03:31:07.734Z,56.11
2022-07-25T03:33:35.705Z,56.45
2022-07-25T03:36:04.664Z,56.38
2022-07-25T03:38:33.054Z,56.58
2022-07-25T03:41:01.039Z,56.68
2022-07-25T03:43:31.437Z,56.31
2022-07-25T03:46:03.024Z,56.35
2022-07-25T03:48:37.227Z,56.34
2022-07-25T03:51:07.202Z,56.78
2022-07-25T03:53:56.088Z,56.34
2022-07-25T03:56:24.866Z,56.40
2022-07-25T03:58:52.255Z,56.11
2022-07-25T04:01:21.113Z,55.52
2022-07-25T04:03:49.869Z,55.51
2022-07-25T04:06:17.377Z,55.60
2022-07-25T04:08:45.234Z,55.48
2022-07-25T04:11:13.017Z,55.46
2022-07-25T04:13:40.535Z,55.49
2022-07-25T04:16:11.602Z,55.32
2022-07-25T04:18:43.690Z,55.36
2022-07-25T04:21:14.293Z,54.92
2022-07-25T04:23:42.496Z,54.73
2022-07-25T04:26:16.902Z,54.51
2022-07-25T04:28:45.175Z,54.06
2022-07-25T04:31:13.299Z,54.12
2022-07-25T04:33:41.930Z,53.96
2022-07-25T04:36:12.831Z,53.77
2022-07-25T04:38:43.653Z,53.28
2022-07-25T04:41:11.814Z,52.73
2022-07-25T04:43:39.204Z,52.54
2022-07-25T04:46:06.804Z,52.32
2022-07-25T04:48:34.509Z,51.59
2022-07-25T04:51:02.950Z,51.27
2022-07-25T04:53:30.993Z,50.51
2022-07-25T04:55:58.465Z,50.08
2022-07-25T04:58:25.829Z,49.37
2022-07-25T05:00:54.959Z,48.74
2022-07-25T05:03:24.331Z,47.84
2022-07-25T05:05:53.015Z,47.82
2022-07-25T05:08:20.752Z,45.58
2022-07-25T05:10:48.115Z,43.23
2022-07-25T05:13:16.527Z,41.57
2022-07-25T05:15:44.455Z,39.37
2022-07-25T05:18:12.663Z,36.35
2022-07-25T05:20:40.495Z,35.18
2022-07-25T05:23:08.798Z,35.70
2022-07-25T05:25:36.913Z,36.14
2022-07-25T05:28:05.396Z,38.09
2022-07-25T05:30:39.355Z,39.58
2022-07-25T05:33:08.107Z,40.45
2022-07-25T05:35:36.593Z,40.53
2022-07-25T05:38:05.405Z,41.51
2022-07-25T05:40:34.575Z,41.29
2022-07-25T05:43:03.897Z,39.48
2022-07-25T05:45:33.028Z,39.12
2022-07-25T05:48:29.937Z,39.29
2022-07-25T05:50:59.655Z,39.05
2022-07-25T05:53:27.324Z,38.67
2022-07-25T05:55:55.808Z,37.34
2022-07-25T05:58:29.138Z,36.54
2022-07-25T06:00:58.814Z,37.13
2022-07-25T06:03:26.938Z,37.95
2022-07-25T06:05:56.494Z,38.50
2022-07-25T06:08:24.119Z,38.78
2022-07-25T06:10:53.167Z,38.63
2022-07-25T06:13:21.844Z,38.02
2022-07-25T06:15:55.480Z,36.63
2022-07-25T06:18:23.626Z,34.37
2022-07-25T06:20:50.713Z,32.27
2022-07-25T06:23:20.641Z,30.60
2022-07-25T06:25:50.457Z,29.74
2022-07-25T06:28:18.478Z,30.17
2022-07-25T06:30:46.276Z,29.39
2022-07-25T06:33:16.013Z,28.18
2022-07-25T06:35:44.597Z,27.44
2022-07-25T06:38:12.088Z,27.15
2022-07-25T06:40:41.646Z,26.52
2022-07-25T06:43:09.216Z,26.40
2022-07-25T06:45:36.604Z,25.92
2022-07-25T06:48:04.388Z,26.57
2022-07-25T06:50:31.790Z,27.18
2022-07-25T06:52:59.217Z,28.06
2022-07-25T06:55:27.026Z,28.26
2022-07-25T06:57:54.759Z,27.84
2022-07-25T07:00:21.985Z,29.08
2022-07-25T07:02:58.441Z,30.20
2022-07-25T07:05:30.025Z,30.33
2022-07-25T07:08:00.434Z,30.43
2022-07-25T07:10:28.394Z,30.63
2022-07-25T07:13:13.615Z,29.53
2022-07-25T07:15:49.607Z,28.74
2022-07-25T07:18:19.195Z,28.37
2022-07-25T07:20:47.424Z,29.02
2022-07-25T07:23:17.845Z,28.95
2022-07-25T07:25:48.074Z,27.54
2022-07-25T07:28:16.234Z,25.24
2022-07-25T07:34:24.599Z,22.01
2022-07-25T07:36:53.292Z,22.49
2022-07-25T07:39:20.980Z,24.47
2022-07-25T07:41:47.912Z,25.51
2022-07-25T07:44:14.923Z,24.81
2022-07-25T07:46:42.147Z,25.39
2022-07-25T07:49:09.770Z,26.08
2022-07-25T07:51:37.988Z,26.12
2022-07-25T07:54:34.578Z,25.37
2022-07-25T07:57:01.715Z,25.22
2022-07-25T07:59:28.750Z,25.19
2022-07-25T08:01:57.025Z,24.98
2022-07-25T08:04:24.397Z,24.48
2022-07-25T08:06:54.054Z,24.80
2022-07-25T08:09:21.106Z,25.08
2022-07-25T08:11:49.786Z,25.09
2022-07-25T08:14:16.866Z,26.01
2022-07-25T08:16:43.831Z,25.66
2022-07-25T08:19:11.855Z,26.02
2022-07-25T08:21:39.584Z,26.93
2022-07-25T08:24:07.324Z,26.96
2022-07-25T08:26:37.273Z,27.07
2022-07-25T08:29:18.884Z,27.49
2022-07-25T08:31:47.236Z,27.73
2022-07-25T08:34:22.398Z,28.27
2022-07-25T08:36:49.816Z,28.15
2022-07-25T08:39:20.536Z,28.88
2022-07-25T08:41:47.650Z,28.77
2022-07-25T08:44:16.019Z,28.65
2022-07-25T08:46:43.636Z,29.07
2022-07-25T08:49:11.260Z,29.63
2022-07-25T08:51:40.188Z,29.18
2022-07-25T08:54:07.655Z,29.23
2022-07-25T08:56:35.764Z,29.04
2022-07-25T08:59:03.812Z,29.13
2022-07-25T09:01:34.898Z,29.29
2022-07-25T09:04:03.901Z,29.05
2022-07-25T09:06:31.354Z,29.00
2022-07-25T09:09:01.169Z,29.08
2022-07-25T09:11:32.783Z,27.93
2022-07-25T09:14:02.921Z,25.89
2022-07-25T09:16:34.849Z,24.76
2022-07-25T09:19:11.968Z,24.12
2022-07-25T09:21:40.429Z,23.18
2022-07-25T09:24:18.958Z,21.69
2022-07-25T09:26:50.964Z,20.53
2022-07-25T09:29:29.416Z,19.76
2022-07-25T09:31:59.376Z,18.90
2022-07-25T09:34:38.092Z,19.74
2022-07-25T09:37:12.405Z,19.24
2022-07-25T09:39:46.496Z,20.33
2022-07-25T09:42:19.745Z,21.25
2022-07-25T09:45:15.270Z,21.61
2022-07-25T09:48:12.035Z,22.83
2022-07-25T09:50:39.107Z,24.25
2022-07-25T09:53:06.378Z,25.63
2022-07-25T09:55:33.686Z,25.77
2022-07-25T09:58:00.962Z,26.86
2022-07-25T10:00:29.316Z,27.67
2022-07-25T10:03:16.418Z,28.93
2022-07-25T10:06:03.588Z,29.78
2022-07-25T10:08:37.060Z,30.59
2022-07-25T10:11:06.775Z,31.78
2022-07-25T10:13:35.648Z,32.87
2022-07-25T10:16:04.224Z,34.84
2022-07-25T10:18:32.077Z,37.56
2022-07-25T10:21:25.094Z,37.46
2022-07-25T10:24:07.906Z,40.20
2022-07-25T10:26:40.302Z,39.08
2022-07-25T10:29:11.919Z,41.12
2022-07-25T10:31:50.275Z,41.48
2022-07-25T10:34:33.738Z,40.97
2022-07-25T10:37:15.521Z,39.79
2022-07-25T10:39:48.863Z,39.34
2022-07-25T10:42:18.106Z,38.52
2022-07-25T10:44:48.556Z,36.85
2022-07-25T10:47:17.165Z,35.71
2022-07-25T10:50:13.861Z,36.47
2022-07-25T10:52:42.003Z,35.65
2022-07-25T10:55:11.067Z,34.90
2022-07-25T10:57:45.322Z,34.47
2022-07-25T11:00:22.320Z,33.70
2022-07-25T11:02:50.274Z,33.47
2022-07-25T11:05:18.637Z,33.97
2022-07-25T11:08:18.936Z,33.39
2022-07-25T11:10:40.597Z,34.12
2022-07-25T11:13:16.310Z,33.15
2022-07-25T11:15:44.273Z,33.25
2022-07-25T11:18:12.249Z,32.34
2022-07-25T11:21:06.593Z,32.10
2022-07-25T11:23:35.047Z,31.62
2022-07-25T11:26:07.030Z,31.80
2022-07-25T11:28:52.873Z,31.38
2022-07-25T11:31:28.826Z,30.89
2022-07-25T11:34:00.104Z,30.78
2022-07-25T11:36:27.498Z,30.69
2022-07-25T11:38:54.777Z,31.03
2022-07-25T11:41:33.829Z,31.34
2022-07-25T11:44:00.994Z,30.92
2022-07-25T11:46:28.172Z,30.60
2022-07-25T11:49:06.104Z,29.63
2022-07-25T11:51:37.812Z,30.05
2022-07-25T11:54:11.503Z,29.34
2022-07-25T11:56:42.914Z,28.85
2022-07-25T11:59:11.668Z,28.96
2022-07-25T12:01:47.770Z,29.20
2022-07-25T12:04:17.813Z,29.47
2022-07-25T12:06:47.465Z,29.18
2022-07-25T12:09:22.187Z,29.46
2022-07-25T12:11:50.026Z,28.99
2022-07-25T12:14:18.405Z,29.29
2022-07-25T12:16:45.748Z,29.12
2022-07-25T12:19:20.999Z,29.18
2022-07-25T12:21:48.809Z,29.26
2022-07-25T12:24:16.071Z,29.28
2022-07-25T12:26:44.223Z,30.00
2022-07-25T12:29:11.607Z,30.56
2022-07-25T12:31:38.945Z,30.53
2022-07-25T12:34:06.932Z,31.00
2022-07-25T12:36:41.238Z,31.12
2022-07-25T12:39:09.771Z,30.59
2022-07-25T12:41:37.341Z,29.96
2022-07-25T12:44:04.965Z,29.87
2022-07-25T12:46:32.804Z,29.76
2022-07-25T12:49:00.383Z,30.19
2022-07-25T12:51:27.867Z,30.06
2022-07-25T12:53:56.041Z,29.98
2022-07-25T12:56:23.662Z,30.64
2022-07-25T12:58:51.403Z,30.61
2022-07-25T13:01:25.812Z,31.11
2022-07-25T13:03:53.049Z,30.83
2022-07-25T13:06:20.948Z,30.08
2022-07-25T13:08:49.009Z,30.02
2022-07-25T13:11:16.194Z,28.95
2022-07-25T13:13:43.354Z,29.87
2022-07-25T13:16:10.718Z,30.20
2022-07-25T13:18:38.253Z,30.32
2022-07-25T13:21:05.785Z,31.73
2022-07-25T13:23:33.035Z,32.24
2022-07-25T13:26:00.687Z,32.49
2022-07-25T13:28:27.862Z,32.68
2022-07-25T13:30:56.834Z,31.62
2022-07-25T13:33:24.222Z,30.77
2022-07-25T13:35:52.085Z,30.61
2022-07-25T13:38:20.765Z,31.20
2022-07-25T13:40:47.934Z,31.42
2022-07-25T13:43:15.170Z,31.77
2022-07-25T13:45:42.826Z,31.34
2022-07-25T13:48:29.078Z,32.46
2022-07-25T13:50:58.308Z,32.55
2022-07-25T13:53:29.763Z,32.57
2022-07-25T13:56:00.124Z,32.45
2022-07-25T13:58:27.752Z,32.84
2022-07-25T14:00:55.123Z,32.92
2022-07-25T14:03:22.528Z,32.29
2022-07-25T14:05:49.644Z,31.60
2022-07-25T14:08:17.008Z,31.43
2022-07-25T14:10:44.870Z,31.33
2022-07-25T14:13:13.141Z,31.62
2022-07-25T14:15:40.103Z,31.76
2022-07-25T14:18:09.829Z,31.75
2022-07-25T14:20:37.110Z,31.95
2022-07-25T14:23:04.449Z,32.68
2022-07-25T14:25:34.163Z,32.98
2022-07-25T14:28:01.230Z,32.92
2022-07-25T14:30:28.222Z,32.44
2022-07-25T14:32:55.399Z,33.07
2022-07-25T14:35:22.447Z,32.67
2022-07-25T14:37:49.531Z,32.27
2022-07-25T14:40:16.960Z,32.00
2022-07-25T14:42:44.759Z,31.98
2022-07-25T14:45:12.737Z,32.32
2022-07-25T14:47:41.255Z,32.29
2022-07-25T14:50:08.553Z,32.29
2022-07-25T14:52:35.974Z,32.52
2022-07-25T14:55:03.372Z,33.41
2022-07-25T14:57:33.489Z,34.07
2022-07-25T15:00:03.876Z,34.39
2022-07-25T15:02:31.004Z,34.97
2022-07-25T15:04:58.135Z,35.30
2022-07-25T15:07:25.433Z,35.47
2022-07-25T15:09:52.435Z,36.66
2022-07-25T15:12:20.807Z,36.81
2022-07-25T15:14:48.571Z,38.02
2022-07-25T15:17:16.357Z,38.58
2022-07-25T15:19:43.939Z,38.81
2022-07-25T15:22:11.229Z,38.60
2022-07-25T15:25:04.346Z,38.67
2022-07-25T15:27:25.423Z,38.96
2022-07-25T15:29:52.399Z,39.10
2022-07-25T15:32:20.992Z,39.20
2022-07-25T15:34:49.073Z,39.21
2022-07-25T15:37:16.841Z,38.65
2022-07-25T15:39:45.377Z,39.17
2022-07-25T15:42:12.566Z,38.95
2022-07-25T15:44:39.722Z,38.75
2022-07-25T15:47:07.439Z,38.20
2022-07-25T15:49:35.129Z,38.21
2022-07-25T15:52:02.166Z,38.80
2022-07-25T15:54:29.606Z,39.96
2022-07-25T15:56:58.080Z,39.66
2022-07-25T15:59:25.119Z,39.28
2022-07-25T16:01:52.862Z,39.70
2022-07-25T16:04:19.989Z,39.61
2022-07-25T16:06:47.142Z,39.22
2022-07-25T16:09:16.112Z,39.05
2022-07-25T16:11:44.068Z,39.39
2022-07-25T16:14:11.269Z,39.99
2022-07-25T16:16:38.305Z,39.45
2022-07-25T16:19:07.119Z,39.38
2022-07-25T16:21:35.335Z,39.05
2022-07-25T16:24:02.328Z,38.76
2022-07-25T16:26:29.376Z,38.78
2022-07-25T16:28:57.814Z,37.91
2022-07-25T16:31:26.804Z,37.57
2022-07-25T16:33:54.108Z,37.09
2022-07-25T16:36:21.126Z,36.84
2022-07-25T16:38:49.226Z,36.38
2022-07-25T16:41:17.084Z,37.46
2022-07-25T16:43:44.167Z,36.20
2022-07-25T16:46:11.248Z,35.58
2022-07-25T16:48:38.398Z,35.61
2022-07-25T16:51:06.789Z,35.23
2022-07-25T16:53:35.648Z,35.29
2022-07-25T16:56:04.243Z,34.91
2022-07-25T16:58:31.393Z,35.04
2022-07-25T17:00:58.372Z,35.55
2022-07-25T17:03:26.119Z,35.69
2022-07-25T17:05:54.730Z,36.01
2022-07-25T17:08:21.740Z,36.30
2022-07-25T17:10:48.931Z,36.70
2022-07-25T17:13:16.906Z,36.98
2022-07-25T17:15:45.525Z,37.26
2022-07-25T17:18:14.131Z,37.60
2022-07-25T17:20:42.148Z,38.22
2022-07-25T17:23:11.233Z,38.04
2022-07-25T17:25:39.830Z,38.39
2022-07-25T17:28:07.838Z,38.28
2022-07-25T17:30:35.235Z,38.80
2022-07-25T17:33:03.162Z,38.63
2022-07-25T17:35:32.563Z,38.82
2022-07-25T17:38:00.121Z,38.68
2022-07-25T17:40:27.242Z,38.57
2022-07-25T17:42:54.217Z,38.23
2022-07-25T17:45:21.431Z,38.70
2022-07-25T17:47:49.123Z,38.94
2022-07-25T17:50:16.970Z,39.50
2022-07-25T17:52:44.142Z,39.31
2022-07-25T17:55:20.171Z,39.91
2022-07-25T17:57:49.105Z,39.52
2022-07-25T18:00:16.320Z,39.75
2022-07-25T18:02:43.547Z,39.72
2022-07-25T18:05:10.768Z,40.26
2022-07-25T18:07:40.874Z,39.73
2022-07-25T18:10:08.210Z,40.04
2022-07-25T18:12:35.792Z,40.03
2022-07-25T18:15:04.029Z,40.44
2022-07-25T18:17:32.863Z,40.67
2022-07-25T18:20:00.192Z,40.60
2022-07-25T18:22:27.345Z,40.91
2022-07-25T18:24:54.592Z,40.36
2022-07-25T18:27:22.039Z,40.31
2022-07-25T18:29:49.233Z,40.10
2022-07-25T18:32:16.349Z,40.06
2022-07-25T18:34:43.436Z,40.18
2022-07-25T18:37:10.864Z,40.33
2022-07-25T18:39:39.399Z,40.21
2022-07-25T18:42:06.539Z,39.76
2022-07-25T18:44:33.712Z,39.31
2022-07-25T18:47:01.472Z,39.16
2022-07-25T18:49:29.107Z,39.63
2022-07-25T18:51:56.258Z,39.04
2022-07-25T18:54:23.497Z,38.75
2022-07-25T18:56:50.464Z,39.21
2022-07-25T18:59:21.569Z,39.01
2022-07-25T19:01:51.223Z,39.71
2022-07-25T19:04:19.061Z,39.41
2022-07-25T19:06:46.876Z,39.87
2022-07-25T19:09:13.902Z,40.10
2022-07-25T19:11:42.355Z,40.55
2022-07-25T19:14:10.151Z,40.72
2022-07-25T19:16:40.207Z,41.20
2022-07-25T19:19:07.431Z,41.46
2022-07-25T19:21:34.440Z,41.24
2022-07-25T19:24:01.588Z,41.57
2022-07-25T19:26:28.953Z,41.68
2022-07-25T19:28:55.990Z,41.81
2022-07-25T19:31:23.257Z,41.92
2022-07-25T19:33:51.021Z,42.12
2022-07-25T19:36:20.013Z,42.52
2022-07-25T19:38:48.132Z,42.49
2022-07-25T19:41:15.707Z,43.23
2022-07-25T19:43:42.897Z,42.95
2022-07-25T19:46:10.150Z,43.09
2022-07-25T19:48:37.469Z,43.13
2022-07-25T19:51:12.184Z,43.30
2022-07-25T19:53:39.436Z,43.97
2022-07-25T19:56:08.560Z,43.57
2022-07-25T19:58:39.766Z,43.91
2022-07-25T20:01:10.974Z,43.99
2022-07-25T20:03:39.071Z,44.11
2022-07-25T20:06:08.581Z,43.80
2022-07-25T20:08:37.247Z,44.05
2022-07-25T20:11:04.250Z,44.32
2022-07-25T20:13:31.142Z,44.53
2022-07-25T20:15:58.771Z,44.70
2022-07-25T20:18:25.889Z,44.74
2022-07-25T20:20:53.978Z,45.05
2022-07-25T20:23:23.198Z,45.15
2022-07-25T20:25:50.490Z,44.82
2022-07-25T20:28:18.854Z,45.61
2022-07-25T20:30:46.012Z,45.00
2022-07-25T20:33:13.119Z,45.10
2022-07-25T20:35:40.414Z,45.04
2022-07-25T20:38:09.109Z,45.25
2022-07-25T20:40:48.181Z,45.59
2022-07-25T20:43:21.596Z,45.41
2022-07-25T20:45:48.821Z,45.21
2022-07-25T20:48:16.012Z,45.47
2022-07-25T20:50:44.595Z,45.85
2022-07-25T20:53:12.079Z,45.91
2022-07-25T20:55:39.283Z,46.01
2022-07-25T20:58:08.178Z,46.18
2022-07-25T21:00:35.130Z,46.72
2022-07-25T21:03:02.238Z,46.74
2022-07-25T21:08:24.357Z,46.74
2022-07-25T21:10:51.453Z,46.54
2022-07-25T21:13:18.639Z,46.61
2022-07-25T21:15:45.805Z,46.86
2022-07-25T21:18:14.272Z,47.10
2022-07-25T21:20:41.294Z,47.21
2022-07-25T21:23:08.781Z,47.18
2022-07-25T21:25:35.826Z,47.51
2022-07-25T21:28:02.908Z,47.15
2022-07-25T21:30:31.796Z,47.58
2022-07-25T21:32:58.743Z,47.50
2022-07-25T21:35:25.663Z,47.81
2022-07-25T21:37:52.635Z,47.80
2022-07-25T21:40:19.539Z,47.66
2022-07-25T21:42:46.820Z,47.72
2022-07-25T21:45:13.882Z,47.36
2022-07-25T21:47:41.236Z,47.65
2022-07-25T21:50:27.208Z,47.56
2022-07-25T21:53:00.531Z,47.06
2022-07-25T21:55:29.984Z,47.15
2022-07-25T21:57:59.190Z,47.09
2022-07-25T22:00:33.517Z,46.90
2022-07-25T22:03:01.363Z,46.93
2022-07-25T22:05:28.440Z,47.07
2022-07-25T22:07:55.662Z,47.04
2022-07-25T22:10:22.924Z,47.00
2022-07-25T22:12:50.192Z,47.05
2022-07-25T22:15:17.301Z,47.17
2022-07-25T22:17:48.625Z,47.14
2022-07-25T22:20:19.314Z,47.28
2022-07-25T22:22:48.000Z,47.05
2022-07-25T22:25:16.249Z,47.54
2022-07-25T22:27:45.196Z,47.62
2022-07-25T22:30:18.299Z,47.56
2022-07-25T22:32:48.846Z,47.54
2022-07-25T22:35:18.008Z,47.32
2022-07-25T22:37:45.893Z,47.49
2022-07-25T22:40:13.060Z,47.62
2022-07-25T22:42:40.242Z,47.59
2022-07-25T22:45:08.292Z,47.76
2022-07-25T22:47:35.437Z,47.87
2022-07-25T22:50:02.364Z,47.81
2022-07-25T22:52:29.395Z,48.59
2022-07-25T22:54:56.379Z,48.32
2022-07-25T22:57:24.237Z,48.59
2022-07-25T22:59:51.225Z,48.57
2022-07-25T23:02:18.429Z,48.99
2022-07-25T23:04:45.482Z,49.04
2022-07-25T23:07:12.517Z,49.92
2022-07-25T23:09:39.630Z,50.20
2022-07-25T23:12:07.026Z,50.43
2022-07-25T23:14:34.059Z,50.56
2022-07-25T23:17:19.659Z,50.79
2022-07-25T23:19:48.938Z,51.09
2022-07-25T23:22:16.928Z,50.77
2022-07-25T23:24:45.091Z,51.30
2022-07-25T23:27:12.431Z,51.64
2022-07-25T23:29:40.297Z,51.50
2022-07-25T23:32:07.656Z,51.78
2022-07-25T23:34:35.861Z,51.33
2022-07-25T23:37:04.216Z,51.44
2022-07-25T23:39:32.297Z,51.35
2022-07-25T23:42:02.880Z,51.28
2022-07-25T23:44:30.206Z,51.16
2022-07-25T23:46:59.966Z,51.17
2022-07-25T23:49:28.883Z,51.12
2022-07-25T23:51:58.986Z,51.06
2022-07-25T23:54:26.277Z,51.32
2022-07-25T23:56:53.393Z,51.17
2022-07-25T23:59:20.749Z,50.92
